sensor_id;sensor_type;location;lat;lon;timestamp;pressure;altitude;pressure_sealevel;temperature;humidity
45927;BME280;64003;47.600;19.682;2022-10-16T07:39:45;101109.53;;;19.01;51.37
45927;BME280;64003;47.600;19.682;2022-10-16T07:44:46;101122.47;;;19.61;49.73
45927;BME280;64003;47.600;19.682;2022-10-16T08:06:42;101181.78;;;21.03;45.26
45927;BME280;64003;47.600;19.682;2022-10-16T08:11:42;101173.78;;;21.43;43.64
45927;BME280;64003;47.600;19.682;2022-10-16T08:16:44;101165.91;;;21.57;42.31
45927;BME280;64003;47.600;19.682;2022-10-16T08:21:47;101186.72;;;21.81;42.19
45927;BME280;64003;47.600;19.682;2022-10-16T08:26:48;101177.09;;;22.09;42.43
45927;BME280;64003;47.600;19.682;2022-10-16T08:31:48;101177.06;;;22.68;41.46
45927;BME280;64003;47.600;19.682;2022-10-16T08:36:49;101179.31;;;23.04;40.12
45927;BME280;64003;47.600;19.682;2022-10-16T08:47:19;101200.81;;;23.67;39.19
45927;BME280;64003;47.600;19.682;2022-10-16T08:52:22;101206.19;;;23.86;37.73
45927;BME280;64003;47.600;19.682;2022-10-16T08:57:25;101204.31;;;23.67;37.75
45927;BME280;64003;47.600;19.682;2022-10-16T09:02:31;101209.81;;;23.19;38.42
45927;BME280;64003;47.600;19.682;2022-10-16T09:07:42;101202.72;;;23.28;38.97
45927;BME280;64003;47.600;19.682;2022-10-16T09:18:30;101188.25;;;23.43;38.94
45927;BME280;64003;47.600;19.682;2022-10-16T09:23:41;101184.06;;;23.89;37.57
45927;BME280;64003;47.600;19.682;2022-10-16T09:28:42;101180.16;;;24.14;36.79
45927;BME280;64003;47.600;19.682;2022-10-16T09:33:44;101191.13;;;24.18;37.12
45927;BME280;64003;47.600;19.682;2022-10-16T09:38:45;101190.78;;;24.53;36.98
45927;BME280;64003;47.600;19.682;2022-10-16T09:43:46;101187.81;;;24.82;35.81
45927;BME280;64003;47.600;19.682;2022-10-16T09:48:50;101184.72;;;24.89;35.60
45927;BME280;64003;47.600;19.682;2022-10-16T09:54:00;101198.38;;;24.64;35.63
45927;BME280;64003;47.600;19.682;2022-10-16T09:59:18;101189.78;;;24.48;36.42
45927;BME280;64003;47.600;19.682;2022-10-16T10:04:20;101187.59;;;24.50;36.23
45927;BME280;64003;47.600;19.682;2022-10-16T10:09:22;101190.56;;;24.35;36.33
45927;BME280;64003;47.600;19.682;2022-10-16T10:14:39;101200.97;;;24.56;36.53
45927;BME280;64003;47.600;19.682;2022-10-16T10:19:59;101201.28;;;24.68;36.75
45927;BME280;64003;47.600;19.682;2022-10-16T10:57:02;101188.50;;;24.74;35.19
45927;BME280;64003;47.600;19.682;2022-10-16T11:02:13;101175.19;;;24.63;35.21
45927;BME280;64003;47.600;19.682;2022-10-16T11:07:21;101176.59;;;24.61;36.04
45927;BME280;64003;47.600;19.682;2022-10-16T11:12:33;101171.03;;;24.71;35.69
45927;BME280;64003;47.600;19.682;2022-10-16T11:28:54;101149.41;;;24.15;36.53
45927;BME280;64003;47.600;19.682;2022-10-16T11:33:34;101147.88;;;24.09;36.89
45927;BME280;64003;47.600;19.682;2022-10-16T11:38:58;101154.69;;;24.20;36.64
45927;BME280;64003;47.600;19.682;2022-10-16T11:44:32;101149.59;;;24.19;35.28
45927;BME280;64003;47.600;19.682;2022-10-16T11:49:36;101143.97;;;24.01;35.84
45927;BME280;64003;47.600;19.682;2022-10-16T11:54:59;101138.59;;;24.01;36.78
45927;BME280;64003;47.600;19.682;2022-10-16T12:00:14;101133.50;;;24.00;36.34
45927;BME280;64003;47.600;19.682;2022-10-16T12:10:43;101137.34;;;23.94;37.30
45927;BME280;64003;47.600;19.682;2022-10-16T12:15:44;101138.50;;;23.87;36.29
45927;BME280;64003;47.600;19.682;2022-10-16T12:20:54;101136.16;;;23.67;36.71
45927;BME280;64003;47.600;19.682;2022-10-16T12:26:00;101136.91;;;23.72;36.68
45927;BME280;64003;47.600;19.682;2022-10-16T12:31:05;101123.88;;;23.61;36.64
45927;BME280;64003;47.600;19.682;2022-10-16T12:36:28;101136.78;;;23.44;36.51
45927;BME280;64003;47.600;19.682;2022-10-16T12:41:35;101137.63;;;23.59;36.56
45927;BME280;64003;47.600;19.682;2022-10-16T12:46:40;101140.69;;;23.52;36.85
45927;BME280;64003;47.600;19.682;2022-10-16T12:51:42;101140.13;;;23.55;36.83
45927;BME280;64003;47.600;19.682;2022-10-16T13:07:25;101126.72;;;23.12;37.06
45927;BME280;64003;47.600;19.682;2022-10-16T13:29:01;101132.31;;;22.96;37.02
45927;BME280;64003;47.600;19.682;2022-10-16T13:39:36;101146.53;;;22.29;37.82
45927;BME280;64003;47.600;19.682;2022-10-16T13:44:40;101145.75;;;21.99;38.53
45927;BME280;64003;47.600;19.682;2022-10-16T17:48:40;101309.22;;;15.47;62.10
45927;BME280;64003;47.600;19.682;2022-10-16T17:53:42;101310.25;;;15.34;63.17
45927;BME280;64003;47.600;19.682;2022-10-16T17:58:48;101326.69;;;15.31;63.82
45927;BME280;64003;47.600;19.682;2022-10-16T18:03:51;101331.41;;;15.29;64.41
45927;BME280;64003;47.600;19.682;2022-10-16T18:08:53;101336.84;;;15.22;64.88
45927;BME280;64003;47.600;19.682;2022-10-16T18:13:55;101337.44;;;15.12;65.56
45927;BME280;64003;47.600;19.682;2022-10-16T18:18:56;101343.44;;;15.08;65.85
45927;BME280;64003;47.600;19.682;2022-10-16T18:23:58;101349.09;;;14.88;66.52
45927;BME280;64003;47.600;19.682;2022-10-16T18:29:05;101364.31;;;14.80;67.08
45927;BME280;64003;47.600;19.682;2022-10-16T18:34:08;101356.84;;;14.59;67.53
45927;BME280;64003;47.600;19.682;2022-10-16T18:39:15;101361.47;;;14.51;67.79
45927;BME280;64003;47.600;19.682;2022-10-16T18:44:17;101369.69;;;14.31;67.94
45927;BME280;64003;47.600;19.682;2022-10-16T18:49:19;101374.13;;;14.19;67.82
45927;BME280;64003;47.600;19.682;2022-10-16T18:54:21;101385.13;;;14.04;68.17
45927;BME280;64003;47.600;19.682;2022-10-16T18:59:22;101379.03;;;13.85;69.46
45927;BME280;64003;47.600;19.682;2022-10-16T19:04:28;101381.09;;;13.83;69.53
45927;BME280;64003;47.600;19.682;2022-10-16T19:09:28;101387.69;;;13.73;69.85
45927;BME280;64003;47.600;19.682;2022-10-16T19:14:29;101395.97;;;13.65;70.46
45927;BME280;64003;47.600;19.682;2022-10-16T19:19:31;101394.47;;;13.51;70.85
45927;BME280;64003;47.600;19.682;2022-10-16T19:24:33;101406.16;;;13.43;71.25
45927;BME280;64003;47.600;19.682;2022-10-16T19:29:35;101409.72;;;13.30;72.26
45927;BME280;64003;47.600;19.682;2022-10-16T19:34:37;101412.63;;;13.22;72.75
45927;BME280;64003;47.600;19.682;2022-10-16T19:39:41;101411.66;;;13.16;72.71
45927;BME280;64003;47.600;19.682;2022-10-16T19:44:42;101417.00;;;13.09;73.09
45927;BME280;64003;47.600;19.682;2022-10-16T19:49:43;101416.22;;;13.02;73.55
45927;BME280;64003;47.600;19.682;2022-10-16T19:54:43;101417.44;;;13.06;73.79
45927;BME280;64003;47.600;19.682;2022-10-16T19:59:45;101420.19;;;12.93;74.20
45927;BME280;64003;47.600;19.682;2022-10-16T20:04:49;101428.75;;;12.88;74.30
45927;BME280;64003;47.600;19.682;2022-10-16T20:09:53;101439.97;;;12.83;74.50
45927;BME280;64003;47.600;19.682;2022-10-16T20:14:54;101437.97;;;12.79;74.56
45927;BME280;64003;47.600;19.682;2022-10-16T20:19:56;101450.44;;;12.71;74.23
45927;BME280;64003;47.600;19.682;2022-10-16T20:24:57;101451.91;;;12.61;74.47
45927;BME280;64003;47.600;19.682;2022-10-16T20:29:57;101464.00;;;12.43;75.85
45927;BME280;64003;47.600;19.682;2022-10-16T20:35:02;101464.66;;;12.32;76.70
45927;BME280;64003;47.600;19.682;2022-10-16T20:40:05;101464.28;;;12.15;77.74
45927;BME280;64003;47.600;19.682;2022-10-16T20:45:06;101486.09;;;12.03;78.19
45927;BME280;64003;47.600;19.682;2022-10-16T20:50:07;101483.66;;;11.95;78.58
45927;BME280;64003;47.600;19.682;2022-10-16T20:55:09;101492.00;;;11.85;78.82
45927;BME280;64003;47.600;19.682;2022-10-16T21:00:16;101493.84;;;11.71;79.22
45927;BME280;64003;47.600;19.682;2022-10-16T21:05:19;101501.16;;;11.69;78.60
45927;BME280;64003;47.600;19.682;2022-10-16T21:10:19;101502.97;;;11.62;78.87
45927;BME280;64003;47.600;19.682;2022-10-16T21:15:21;101504.59;;;11.43;79.23
45927;BME280;64003;47.600;19.682;2022-10-16T21:20:25;101508.66;;;11.45;78.85
45927;BME280;64003;47.600;19.682;2022-10-16T21:25:28;101516.38;;;11.33;79.04
45927;BME280;64003;47.600;19.682;2022-10-16T21:30:29;101518.59;;;11.16;79.59
45927;BME280;64003;47.600;19.682;2022-10-16T21:35:32;101524.66;;;11.03;80.13
45927;BME280;64003;47.600;19.682;2022-10-16T21:40:33;101524.84;;;10.95;79.97
45927;BME280;64003;47.600;19.682;2022-10-16T21:45:35;101533.97;;;10.93;79.71
45927;BME280;64003;47.600;19.682;2022-10-16T21:50:36;101544.94;;;10.96;79.58
45927;BME280;64003;47.600;19.682;2022-10-16T21:55:37;101535.59;;;10.94;79.27
45927;BME280;64003;47.600;19.682;2022-10-16T22:00:38;101541.09;;;10.99;78.74
45927;BME280;64003;47.600;19.682;2022-10-16T22:05:39;101544.72;;;10.84;78.59
45927;BME280;64003;47.600;19.682;2022-10-16T22:10:41;101543.88;;;10.84;78.51
45927;BME280;64003;47.600;19.682;2022-10-16T22:15:49;101543.19;;;10.68;78.69
45927;BME280;64003;47.600;19.682;2022-10-16T22:20:55;101545.63;;;10.70;78.99
45927;BME280;64003;47.600;19.682;2022-10-16T22:26:06;101538.38;;;10.79;79.08
45927;BME280;64003;47.600;19.682;2022-10-16T22:31:10;101545.28;;;10.80;79.42
45927;BME280;64003;47.600;19.682;2022-10-16T22:36:13;101546.06;;;10.73;79.66
45927;BME280;64003;47.600;19.682;2022-10-16T22:41:15;101560.66;;;10.69;79.92
45927;BME280;64003;47.600;19.682;2022-10-16T22:46:19;101552.47;;;10.57;80.77
45927;BME280;64003;47.600;19.682;2022-10-16T22:51:21;101554.84;;;10.45;81.27
45927;BME280;64003;47.600;19.682;2022-10-16T22:56:23;101557.81;;;10.36;81.07
45927;BME280;64003;47.600;19.682;2022-10-16T23:01:32;101566.78;;;10.41;80.70
45927;BME280;64003;47.600;19.682;2022-10-16T23:06:35;101580.06;;;10.48;80.06
45927;BME280;64003;47.600;19.682;2022-10-16T23:11:36;101573.97;;;10.26;81.15
45927;BME280;64003;47.600;19.682;2022-10-16T23:16:37;101582.25;;;10.23;80.47
45927;BME280;64003;47.600;19.682;2022-10-16T23:21:38;101596.88;;;10.19;81.82
45927;BME280;64003;47.600;19.682;2022-10-16T23:26:38;101595.03;;;10.19;81.55
45927;BME280;64003;47.600;19.682;2022-10-16T23:31:39;101581.38;;;10.09;82.88
45927;BME280;64003;47.600;19.682;2022-10-16T23:36:39;101594.56;;;10.09;82.66
45927;BME280;64003;47.600;19.682;2022-10-16T23:41:45;101594.41;;;10.17;82.29
45927;BME280;64003;47.600;19.682;2022-10-16T23:46:46;101609.00;;;10.13;81.95
45927;BME280;64003;47.600;19.682;2022-10-16T23:51:46;101606.50;;;10.05;82.04
45927;BME280;64003;47.600;19.682;2022-10-16T23:56:48;101613.59;;;10.04;81.59
